sensor_id;sensor_type;location;lat;lon;timestamp;pressure;altitude;pressure_sealevel;temperature;humidity
61961;BME280;47923;42.506;24.192;2023-08-20T00:00:17;95813.50;;;19.29;68.22
61961;BME280;47923;42.506;24.192;2023-08-20T00:02:45;95811.09;;;19.31;68.83
61961;BME280;47923;42.506;24.192;2023-08-20T00:05:12;95768.78;;;18.98;69.85
61961;BME280;47923;42.506;24.192;2023-08-20T00:07:38;95684.41;;;18.41;69.68
61961;BME280;47923;42.506;24.192;2023-08-20T00:10:03;95807.34;;;19.18;69.27
61961;BME280;47923;42.506;24.192;2023-08-20T00:12:30;95798.00;;;19.12;66.87
61961;BME280;47923;42.506;24.192;2023-08-20T00:15:00;95793.66;;;19.14;68.10
61961;BME280;47923;42.506;24.192;2023-08-20T00:17:33;95796.38;;;19.18;69.39
61961;BME280;47923;42.506;24.192;2023-08-20T00:20:00;95791.84;;;19.00;68.68
61961;BME280;47923;42.506;24.192;2023-08-20T00:22:26;95747.00;;;18.84;69.12
61961;BME280;47923;42.506;24.192;2023-08-20T00:24:53;95801.13;;;19.14;69.36
61961;BME280;47923;42.506;24.192;2023-08-20T00:27:18;95775.03;;;18.98;69.24
61961;BME280;47923;42.506;24.192;2023-08-20T00:29:44;95795.69;;;19.07;69.23
61961;BME280;47923;42.506;24.192;2023-08-20T00:32:09;95655.03;;;17.97;68.85
61961;BME280;47923;42.506;24.192;2023-08-20T00:34:35;95793.03;;;18.99;69.61
61961;BME280;47923;42.506;24.192;2023-08-20T00:37:01;95776.34;;;18.80;70.71
61961;BME280;47923;42.506;24.192;2023-08-20T00:39:28;95809.91;;;18.91;70.23
61961;BME280;47923;42.506;24.192;2023-08-20T00:41:53;95798.25;;;18.83;70.64
61961;BME280;47923;42.506;24.192;2023-08-20T00:44:19;95341.16;;;15.69;71.93
61961;BME280;47923;42.506;24.192;2023-08-20T00:46:45;95792.94;;;18.58;72.76
61961;BME280;47923;42.506;24.192;2023-08-20T00:49:10;95788.72;;;18.43;72.95
61961;BME280;47923;42.506;24.192;2023-08-20T00:51:37;95704.00;;;17.73;74.18
61961;BME280;47923;42.506;24.192;2023-08-20T00:54:03;95784.13;;;18.29;74.01
61961;BME280;47923;42.506;24.192;2023-08-20T00:56:29;95791.91;;;18.34;72.15
61961;BME280;47923;42.506;24.192;2023-08-20T00:58:54;95793.09;;;18.33;73.79
61961;BME280;47923;42.506;24.192;2023-08-20T01:01:21;95578.69;;;16.95;72.04
61961;BME280;47923;42.506;24.192;2023-08-20T01:03:47;95786.44;;;18.34;72.22
61961;BME280;47923;42.506;24.192;2023-08-20T01:06:39;95698.84;;;17.86;71.49
61961;BME280;47923;42.506;24.192;2023-08-20T01:09:47;95791.44;;;18.43;73.00
61961;BME280;47923;42.506;24.192;2023-08-20T01:12:16;95771.16;;;18.44;69.89
61961;BME280;47923;42.506;24.192;2023-08-20T01:14:42;95654.75;;;17.80;71.39
61961;BME280;47923;42.506;24.192;2023-08-20T01:17:07;95735.25;;;18.35;71.56
61961;BME280;47923;42.506;24.192;2023-08-20T01:19:33;95704.13;;;18.18;72.07
61961;BME280;47923;42.506;24.192;2023-08-20T01:24:43;95753.56;;;18.41;72.16
61961;BME280;47923;42.506;24.192;2023-08-20T01:27:25;95757.84;;;18.42;72.02
61961;BME280;47923;42.506;24.192;2023-08-20T01:29:52;95605.00;;;17.40;73.12
61961;BME280;47923;42.506;24.192;2023-08-20T01:32:18;95757.13;;;18.35;73.16
61961;BME280;47923;42.506;24.192;2023-08-20T01:34:45;95744.34;;;18.14;70.40
61961;BME280;47923;42.506;24.192;2023-08-20T01:37:11;95743.16;;;18.18;72.08
61961;BME280;47923;42.506;24.192;2023-08-20T01:39:36;95750.50;;;18.32;73.48
61961;BME280;47923;42.506;24.192;2023-08-20T01:42:02;95746.19;;;18.35;72.53
61961;BME280;47923;42.506;24.192;2023-08-20T01:44:27;95550.56;;;17.08;71.40
61961;BME280;47923;42.506;24.192;2023-08-20T01:46:53;95742.72;;;18.27;73.34
61961;BME280;47923;42.506;24.192;2023-08-20T01:49:18;95725.63;;;18.16;73.09
61961;BME280;47923;42.506;24.192;2023-08-20T01:51:43;95706.97;;;17.97;73.61
61961;BME280;47923;42.506;24.192;2023-08-20T01:54:09;95696.16;;;17.79;74.24
61961;BME280;47923;42.506;24.192;2023-08-20T01:56:34;95737.41;;;17.99;74.05
61961;BME280;47923;42.506;24.192;2023-08-20T01:59:00;95614.88;;;17.17;73.36
61961;BME280;47923;42.506;24.192;2023-08-20T02:01:25;95739.03;;;17.92;74.76
61961;BME280;47923;42.506;24.192;2023-08-20T02:03:50;95732.81;;;17.85;75.06
61961;BME280;47923;42.506;24.192;2023-08-20T02:06:16;95724.63;;;17.85;75.04
61961;BME280;47923;42.506;24.192;2023-08-20T02:08:41;95716.81;;;17.83;75.11
61961;BME280;47923;42.506;24.192;2023-08-20T02:11:07;95719.53;;;17.83;74.82
61961;BME280;47923;42.506;24.192;2023-08-20T02:13:32;95422.03;;;15.83;74.81
61961;BME280;47923;42.506;24.192;2023-08-20T02:16:02;95720.31;;;17.84;75.07
61961;BME280;47923;42.506;24.192;2023-08-20T02:18:29;95683.72;;;17.60;74.56
61961;BME280;47923;42.506;24.192;2023-08-20T02:20:54;95709.81;;;17.68;74.39
61961;BME280;47923;42.506;24.192;2023-08-20T02:23:20;95712.53;;;17.82;74.80
61961;BME280;47923;42.506;24.192;2023-08-20T02:25:46;95714.50;;;17.78;74.78
61961;BME280;47923;42.506;24.192;2023-08-20T02:28:11;95284.50;;;14.86;75.17
61961;BME280;47923;42.506;24.192;2023-08-20T02:30:45;95713.81;;;17.53;76.29
61961;BME280;47923;42.506;24.192;2023-08-20T02:33:11;95686.25;;;17.15;76.14
61961;BME280;47923;42.506;24.192;2023-08-20T02:35:37;95716.97;;;17.40;76.09
61961;BME280;47923;42.506;24.192;2023-08-20T02:38:03;95626.25;;;16.94;74.83
61961;BME280;47923;42.506;24.192;2023-08-20T02:40:28;95710.69;;;17.47;75.28
61961;BME280;47923;42.506;24.192;2023-08-20T02:42:54;95713.44;;;17.51;75.45
61961;BME280;47923;42.506;24.192;2023-08-20T02:45:19;95705.25;;;17.40;76.81
61961;BME280;47923;42.506;24.192;2023-08-20T02:47:44;95549.63;;;16.27;76.91
61961;BME280;47923;42.506;24.192;2023-08-20T02:50:10;95706.09;;;17.23;76.72
61961;BME280;47923;42.506;24.192;2023-08-20T02:52:35;95562.88;;;16.22;77.50
61961;BME280;47923;42.506;24.192;2023-08-20T02:55:01;95704.94;;;17.17;76.62
61961;BME280;47923;42.506;24.192;2023-08-20T02:57:26;95550.81;;;16.19;75.78
61961;BME280;47923;42.506;24.192;2023-08-20T02:59:52;95605.69;;;16.53;76.38
61961;BME280;47923;42.506;24.192;2023-08-20T03:02:17;95710.44;;;17.09;76.68
61961;BME280;47923;42.506;24.192;2023-08-20T03:04:43;95710.75;;;17.26;76.79
61961;BME280;47923;42.506;24.192;2023-08-20T03:07:08;95656.28;;;16.94;76.29
61961;BME280;47923;42.506;24.192;2023-08-20T03:09:34;95713.91;;;17.21;77.42
61961;BME280;47923;42.506;24.192;2023-08-20T03:11:59;95763.84;;;17.14;77.03
61961;BME280;47923;42.506;24.192;2023-08-20T03:14:24;95720.94;;;17.11;75.21
61961;BME280;47923;42.506;24.192;2023-08-20T03:16:50;95725.63;;;17.14;76.00
61961;BME280;47923;42.506;24.192;2023-08-20T03:19:15;95728.34;;;17.10;76.03
61961;BME280;47923;42.506;24.192;2023-08-20T03:21:41;95734.22;;;17.12;76.30
61961;BME280;47923;42.506;24.192;2023-08-20T03:24:07;95732.66;;;17.15;76.56
61961;BME280;47923;42.506;24.192;2023-08-20T03:26:33;95606.88;;;16.42;77.32
61961;BME280;47923;42.506;24.192;2023-08-20T03:28:58;95621.66;;;16.55;77.49
61961;BME280;47923;42.506;24.192;2023-08-20T03:31:24;95686.31;;;16.97;77.94
61961;BME280;47923;42.506;24.192;2023-08-20T03:33:49;95627.13;;;16.55;76.02
61961;BME280;47923;42.506;24.192;2023-08-20T03:36:15;95714.72;;;17.10;75.62
61961;BME280;47923;42.506;24.192;2023-08-20T03:38:40;95615.81;;;16.60;74.68
61961;BME280;47923;42.506;24.192;2023-08-20T03:41:06;95683.94;;;17.06;73.85
61961;BME280;47923;42.506;24.192;2023-08-20T03:43:31;95546.94;;;16.24;74.37
61961;BME280;47923;42.506;24.192;2023-08-20T03:45:57;95708.38;;;17.38;73.38
61961;BME280;47923;42.506;24.192;2023-08-20T03:48:22;95726.25;;;17.61;73.59
61961;BME280;47923;42.506;24.192;2023-08-20T03:50:48;95691.97;;;17.46;72.97
61961;BME280;47923;42.506;24.192;2023-08-20T03:53:13;95729.31;;;17.77;73.80
61961;BME280;47923;42.506;24.192;2023-08-20T03:55:39;95666.63;;;17.45;73.67
61961;BME280;47923;42.506;24.192;2023-08-20T03:58:04;95613.34;;;17.12;73.64
61961;BME280;47923;42.506;24.192;2023-08-20T04:00:30;95721.41;;;18.01;71.66
61961;BME280;47923;42.506;24.192;2023-08-20T04:02:55;95726.75;;;18.22;71.87
61961;BME280;47923;42.506;24.192;2023-08-20T04:05:20;95599.84;;;17.53;71.71
61961;BME280;47923;42.506;24.192;2023-08-20T04:07:46;95561.69;;;17.43;71.00
61961;BME280;47923;42.506;24.192;2023-08-20T04:10:11;95698.53;;;18.32;70.86
61961;BME280;47923;42.506;24.192;2023-08-20T04:12:37;95722.50;;;18.69;70.96
61961;BME280;47923;42.506;24.192;2023-08-20T04:15:03;95728.78;;;19.45;67.56
61961;BME280;47923;42.506;24.192;2023-08-20T04:17:28;95732.28;;;19.83;65.59
61961;BME280;47923;42.506;24.192;2023-08-20T04:19:54;95708.88;;;19.75;65.21
61961;BME280;47923;42.506;24.192;2023-08-20T04:22:19;95726.72;;;20.18;63.96
61961;BME280;47923;42.506;24.192;2023-08-20T04:24:45;95722.22;;;20.31;63.67
61961;BME280;47923;42.506;24.192;2023-08-20T04:27:10;95737.50;;;20.59;62.67
61961;BME280;47923;42.506;24.192;2023-08-20T04:29:36;95733.53;;;20.87;61.45
61961;BME280;47923;42.506;24.192;2023-08-20T04:32:01;95677.41;;;20.88;59.98
61961;BME280;47923;42.506;24.192;2023-08-20T04:34:27;95673.00;;;20.94;59.99
61961;BME280;47923;42.506;24.192;2023-08-20T04:36:52;95589.81;;;20.74;58.88
61961;BME280;47923;42.506;24.192;2023-08-20T04:39:18;95725.19;;;21.77;57.63
61961;BME280;47923;42.506;24.192;2023-08-20T04:41:44;95673.88;;;21.50;57.86
61961;BME280;47923;42.506;24.192;2023-08-20T04:44:09;95727.28;;;22.09;56.76
61961;BME280;47923;42.506;24.192;2023-08-20T04:46:35;95660.81;;;21.74;56.36
61961;BME280;47923;42.506;24.192;2023-08-20T04:49:00;95710.06;;;22.05;56.72
61961;BME280;47923;42.506;24.192;2023-08-20T04:51:26;95719.44;;;22.60;55.61
61961;BME280;47923;42.506;24.192;2023-08-20T04:53:51;95649.50;;;22.57;54.30
61961;BME280;47923;42.506;24.192;2023-08-20T04:56:16;95585.69;;;22.30;53.56
61961;BME280;47923;42.506;24.192;2023-08-20T04:58:42;95683.63;;;22.76;53.96
61961;BME280;47923;42.506;24.192;2023-08-20T05:01:07;95714.66;;;23.26;53.15
61961;BME280;47923;42.506;24.192;2023-08-20T05:03:34;95647.41;;;22.94;52.49
61961;BME280;47923;42.506;24.192;2023-08-20T05:05:59;95731.06;;;23.46;51.95
61961;BME280;47923;42.506;24.192;2023-08-20T05:08:25;95719.31;;;23.12;52.47
61961;BME280;47923;42.506;24.192;2023-08-20T05:10:50;95725.00;;;22.04;56.10
61961;BME280;47923;42.506;24.192;2023-08-20T05:13:17;95720.91;;;22.65;55.16
61961;BME280;47923;42.506;24.192;2023-08-20T05:15:42;95717.72;;;22.99;54.10
61961;BME280;47923;42.506;24.192;2023-08-20T05:18:08;95715.38;;;22.97;54.49
61961;BME280;47923;42.506;24.192;2023-08-20T05:20:33;95629.22;;;22.80;52.70
61961;BME280;47923;42.506;24.192;2023-08-20T05:22:59;95727.28;;;24.10;50.41
61961;BME280;47923;42.506;24.192;2023-08-20T05:25:24;95730.41;;;24.50;49.27
61961;BME280;47923;42.506;24.192;2023-08-20T05:27:50;95723.78;;;24.48;49.06
61961;BME280;47923;42.506;24.192;2023-08-20T05:30:15;95654.84;;;24.57;47.58
61961;BME280;47923;42.506;24.192;2023-08-20T05:32:41;95598.16;;;24.65;46.40
61961;BME280;47923;42.506;24.192;2023-08-20T05:35:07;95674.19;;;25.83;45.06
61961;BME280;47923;42.506;24.192;2023-08-20T05:37:32;95733.16;;;26.55;43.16
61961;BME280;47923;42.506;24.192;2023-08-20T05:39:57;95738.25;;;26.34;43.54
61961;BME280;47923;42.506;24.192;2023-08-20T05:42:23;95738.00;;;26.10;44.43
61961;BME280;47923;42.506;24.192;2023-08-20T05:44:48;95456.25;;;23.81;45.14
61961;BME280;47923;42.506;24.192;2023-08-20T05:47:14;95735.06;;;25.83;45.10
61961;BME280;47923;42.506;24.192;2023-08-20T05:49:39;95636.72;;;25.03;45.23
61961;BME280;47923;42.506;24.192;2023-08-20T05:52:05;95743.63;;;25.76;45.51
61961;BME280;47923;42.506;24.192;2023-08-20T05:54:30;95630.91;;;24.54;47.27
61961;BME280;47923;42.506;24.192;2023-08-20T05:56:57;95527.06;;;23.84;47.55
61961;BME280;47923;42.506;24.192;2023-08-20T05:59:23;95624.06;;;24.46;47.68
61961;BME280;47923;42.506;24.192;2023-08-20T06:01:48;95750.69;;;25.77;46.37
61961;BME280;47923;42.506;24.192;2023-08-20T06:04:14;95700.69;;;25.93;45.48
61961;BME280;47923;42.506;24.192;2023-08-20T06:06:39;95543.97;;;25.24;44.48
61961;BME280;47923;42.506;24.192;2023-08-20T06:09:05;95743.56;;;26.82;44.04
61961;BME280;47923;42.506;24.192;2023-08-20T06:11:31;95595.91;;;25.73;43.87
61961;BME280;47923;42.506;24.192;2023-08-20T06:13:56;95752.88;;;26.66;44.05
61961;BME280;47923;42.506;24.192;2023-08-20T06:16:22;95706.78;;;26.41;43.92
61961;BME280;47923;42.506;24.192;2023-08-20T06:18:47;95757.66;;;26.65;44.52
61961;BME280;47923;42.506;24.192;2023-08-20T06:21:13;95629.88;;;25.74;44.94
61961;BME280;47923;42.506;24.192;2023-08-20T06:23:38;95590.34;;;25.73;44.79
61961;BME280;47923;42.506;24.192;2023-08-20T06:26:04;95768.94;;;27.11;44.38
61961;BME280;47923;42.506;24.192;2023-08-20T06:28:29;95690.06;;;26.54;44.20
61961;BME280;47923;42.506;24.192;2023-08-20T06:30:55;95759.38;;;27.12;44.61
61961;BME280;47923;42.506;24.192;2023-08-20T06:33:21;95744.75;;;27.30;43.88
61961;BME280;47923;42.506;24.192;2023-08-20T06:35:46;95430.72;;;26.29;41.81
61961;BME280;47923;42.506;24.192;2023-08-20T06:38:12;95748.19;;;31.99;35.50
61961;BME280;47923;42.506;24.192;2023-08-20T06:40:37;95550.78;;;33.74;29.30
61961;BME280;47923;42.506;24.192;2023-08-20T06:43:03;95755.59;;;37.77;25.67
61961;BME280;47923;42.506;24.192;2023-08-20T06:45:29;95691.19;;;39.10;23.51
61961;BME280;47923;42.506;24.192;2023-08-20T06:47:54;95757.53;;;40.56;21.35
61961;BME280;47923;42.506;24.192;2023-08-20T06:50:20;95757.03;;;40.86;21.09
61961;BME280;47923;42.506;24.192;2023-08-20T06:52:45;95753.81;;;41.68;19.42
61961;BME280;47923;42.506;24.192;2023-08-20T06:55:11;95752.91;;;42.09;19.57
61961;BME280;47923;42.506;24.192;2023-08-20T06:57:36;95674.41;;;41.60;18.66
61961;BME280;47923;42.506;24.192;2023-08-20T07:00:02;95756.91;;;42.14;17.74
61961;BME280;47923;42.506;24.192;2023-08-20T07:02:29;95755.44;;;43.81;16.99
61961;BME280;47923;42.506;24.192;2023-08-20T07:04:55;95711.38;;;43.42;16.54
61961;BME280;47923;42.506;24.192;2023-08-20T07:07:20;95653.41;;;43.14;15.90
61961;BME280;47923;42.506;24.192;2023-08-20T07:09:46;95756.94;;;43.74;16.13
61961;BME280;47923;42.506;24.192;2023-08-20T07:12:11;95740.00;;;44.39;15.96
61961;BME280;47923;42.506;24.192;2023-08-20T07:14:37;95735.06;;;45.15;15.27
61961;BME280;47923;42.506;24.192;2023-08-20T07:17:02;95678.22;;;45.17;14.89
61961;BME280;47923;42.506;24.192;2023-08-20T07:19:28;95726.41;;;44.80;15.13
61961;BME280;47923;42.506;24.192;2023-08-20T07:21:54;95756.28;;;46.43;14.58
61961;BME280;47923;42.506;24.192;2023-08-20T07:24:19;95760.16;;;46.65;13.67
61961;BME280;47923;42.506;24.192;2023-08-20T07:26:50;95641.56;;;46.37;13.69
61961;BME280;47923;42.506;24.192;2023-08-20T07:29:16;95752.41;;;46.21;14.73
61961;BME280;47923;42.506;24.192;2023-08-20T07:31:41;95761.09;;;45.19;14.41
61961;BME280;47923;42.506;24.192;2023-08-20T07:34:07;95742.44;;;44.03;15.79
61961;BME280;47923;42.506;24.192;2023-08-20T07:36:32;95751.56;;;44.42;15.46
61961;BME280;47923;42.506;24.192;2023-08-20T07:38:59;95749.88;;;46.08;14.35
61961;BME280;47923;42.506;24.192;2023-08-20T07:41:25;95750.31;;;45.52;14.44
61961;BME280;47923;42.506;24.192;2023-08-20T07:43:51;95741.31;;;47.45;13.33
61961;BME280;47923;42.506;24.192;2023-08-20T07:46:18;95624.34;;;46.27;13.16
61961;BME280;47923;42.506;24.192;2023-08-20T07:48:43;95749.03;;;47.90;12.06
61961;BME280;47923;42.506;24.192;2023-08-20T07:51:08;95734.16;;;45.30;14.26
61961;BME280;47923;42.506;24.192;2023-08-20T07:53:34;95677.94;;;44.38;14.16
61961;BME280;47923;42.506;24.192;2023-08-20T07:56:01;95747.31;;;45.08;13.82
61961;BME280;47923;42.506;24.192;2023-08-20T07:58:27;95741.72;;;46.48;13.15
61961;BME280;47923;42.506;24.192;2023-08-20T08:00:53;95693.97;;;46.32;12.85
61961;BME280;47923;42.506;24.192;2023-08-20T08:03:19;95703.75;;;47.02;12.54
61961;BME280;47923;42.506;24.192;2023-08-20T08:05:48;95740.44;;;46.59;12.71
61961;BME280;47923;42.506;24.192;2023-08-20T08:08:15;95697.31;;;47.11;12.73
61961;BME280;47923;42.506;24.192;2023-08-20T08:10:41;95741.84;;;48.59;12.77
61961;BME280;47923;42.506;24.192;2023-08-20T08:13:10;95743.53;;;48.53;12.05
61961;BME280;47923;42.506;24.192;2023-08-20T08:15:35;95748.31;;;45.80;13.35
61961;BME280;47923;42.506;24.192;2023-08-20T08:18:00;95717.44;;;44.34;14.58
61961;BME280;47923;42.506;24.192;2023-08-20T08:20:26;95697.00;;;42.63;15.98
61961;BME280;47923;42.506;24.192;2023-08-20T08:22:51;95581.38;;;41.51;16.54
61961;BME280;47923;42.506;24.192;2023-08-20T08:25:17;95742.63;;;41.62;17.16
61961;BME280;47923;42.506;24.192;2023-08-20T08:27:43;95744.31;;;41.94;16.92
61961;BME280;47923;42.506;24.192;2023-08-20T08:30:08;95752.41;;;42.26;16.59
61961;BME280;47923;42.506;24.192;2023-08-20T08:32:34;95732.97;;;43.22;15.88
61961;BME280;47923;42.506;24.192;2023-08-20T08:34:59;95695.34;;;44.42;14.30
61961;BME280;47923;42.506;24.192;2023-08-20T08:37:24;95739.91;;;45.82;13.55
61961;BME280;47923;42.506;24.192;2023-08-20T08:39:50;95737.91;;;48.64;12.27
61961;BME280;47923;42.506;24.192;2023-08-20T08:42:16;95570.72;;;48.19;10.72
61961;BME280;47923;42.506;24.192;2023-08-20T08:44:45;95735.16;;;47.58;11.96
61961;BME280;47923;42.506;24.192;2023-08-20T08:47:11;95737.31;;;47.01;12.85
61961;BME280;47923;42.506;24.192;2023-08-20T08:49:37;95712.94;;;44.56;13.37
61961;BME280;47923;42.506;24.192;2023-08-20T08:52:03;95741.03;;;44.59;13.97
61961;BME280;47923;42.506;24.192;2023-08-20T08:54:30;95618.69;;;45.21;13.35
61961;BME280;47923;42.506;24.192;2023-08-20T08:56:57;95731.91;;;47.15;12.91
61961;BME280;47923;42.506;24.192;2023-08-20T08:59:22;95694.50;;;47.79;11.72
61961;BME280;47923;42.506;24.192;2023-08-20T09:01:49;95726.41;;;47.56;12.02
61961;BME280;47923;42.506;24.192;2023-08-20T09:04:14;95718.44;;;47.93;11.97
61961;BME280;47923;42.506;24.192;2023-08-20T09:06:47;95722.28;;;50.15;10.28
61961;BME280;47923;42.506;24.192;2023-08-20T09:09:13;95655.84;;;48.69;10.99
61961;BME280;47923;42.506;24.192;2023-08-20T09:11:38;95725.81;;;49.92;10.32
61961;BME280;47923;42.506;24.192;2023-08-20T09:14:04;95515.38;;;47.85;10.75
61961;BME280;47923;42.506;24.192;2023-08-20T09:16:30;95592.44;;;48.75;10.17
61961;BME280;47923;42.506;24.192;2023-08-20T09:18:59;95715.88;;;49.08;11.33
61961;BME280;47923;42.506;24.192;2023-08-20T09:21:27;95707.25;;;50.05;11.10
61961;BME280;47923;42.506;24.192;2023-08-20T09:24:01;95708.19;;;48.09;11.39
61961;BME280;47923;42.506;24.192;2023-08-20T09:26:27;95716.78;;;47.80;11.75
61961;BME280;47923;42.506;24.192;2023-08-20T09:28:55;95429.16;;;47.00;10.82
61961;BME280;47923;42.506;24.192;2023-08-20T09:31:39;95711.38;;;48.54;11.33
61961;BME280;47923;42.506;24.192;2023-08-20T09:34:05;95712.06;;;48.24;11.29
61961;BME280;47923;42.506;24.192;2023-08-20T09:36:32;95711.38;;;48.64;11.26
61961;BME280;47923;42.506;24.192;2023-08-20T09:38:58;95700.16;;;48.78;10.63
61961;BME280;47923;42.506;24.192;2023-08-20T09:41:24;95718.38;;;48.82;10.80
61961;BME280;47923;42.506;24.192;2023-08-20T09:43:56;95686.50;;;47.87;11.50
61961;BME280;47923;42.506;24.192;2023-08-20T09:46:24;95716.41;;;48.44;10.86
61961;BME280;47923;42.506;24.192;2023-08-20T09:48:50;95707.25;;;48.36;10.63
61961;BME280;47923;42.506;24.192;2023-08-20T09:51:19;95702.50;;;47.71;10.95
61961;BME280;47923;42.506;24.192;2023-08-20T09:53:55;95594.53;;;47.03;11.11
61961;BME280;47923;42.506;24.192;2023-08-20T09:56:30;95701.63;;;46.93;11.74
61961;BME280;47923;42.506;24.192;2023-08-20T09:58:57;95683.66;;;47.97;11.00
61961;BME280;47923;42.506;24.192;2023-08-20T10:01:24;95698.84;;;47.51;11.43
61961;BME280;47923;42.506;24.192;2023-08-20T10:03:51;95632.03;;;45.36;12.47
61961;BME280;47923;42.506;24.192;2023-08-20T10:06:17;95694.25;;;46.53;11.98
61961;BME280;47923;42.506;24.192;2023-08-20T10:08:44;95703.94;;;46.67;11.82
61961;BME280;47923;42.506;24.192;2023-08-20T10:11:11;95690.97;;;47.13;11.28
61961;BME280;47923;42.506;24.192;2023-08-20T10:13:37;95667.91;;;43.97;12.83
61961;BME280;47923;42.506;24.192;2023-08-20T10:16:03;95626.31;;;44.34;12.23
61961;BME280;47923;42.506;24.192;2023-08-20T10:18:28;95489.22;;;45.24;12.18
61961;BME280;47923;42.506;24.192;2023-08-20T10:20:57;95488.16;;;45.19;11.63
61961;BME280;47923;42.506;24.192;2023-08-20T10:23:23;95692.28;;;46.55;11.86
61961;BME280;47923;42.506;24.192;2023-08-20T10:25:49;95608.78;;;44.45;12.21
61961;BME280;47923;42.506;24.192;2023-08-20T10:28:26;95545.81;;;44.93;11.90
61961;BME280;47923;42.506;24.192;2023-08-20T10:31:06;95617.53;;;44.64;12.11
61961;BME280;47923;42.506;24.192;2023-08-20T10:33:57;95687.88;;;43.41;13.66
61961;BME280;47923;42.506;24.192;2023-08-20T10:36:23;95687.03;;;44.04;12.97
61961;BME280;47923;42.506;24.192;2023-08-20T10:38:53;95673.38;;;43.62;13.28
61961;BME280;47923;42.506;24.192;2023-08-20T10:41:27;95586.75;;;41.78;14.08
61961;BME280;47923;42.506;24.192;2023-08-20T10:43:57;95690.09;;;40.76;15.42
61961;BME280;47923;42.506;24.192;2023-08-20T10:46:24;95674.22;;;38.83;17.00
61961;BME280;47923;42.506;24.192;2023-08-20T10:48:52;95613.63;;;38.84;16.46
61961;BME280;47923;42.506;24.192;2023-08-20T10:51:24;95677.06;;;39.63;16.64
61961;BME280;47923;42.506;24.192;2023-08-20T10:56:54;95681.66;;;38.54;17.31
61961;BME280;47923;42.506;24.192;2023-08-20T10:59:21;95680.34;;;38.55;16.94
61961;BME280;47923;42.506;24.192;2023-08-20T11:01:48;95674.03;;;38.17;17.65
61961;BME280;47923;42.506;24.192;2023-08-20T11:04:18;95668.13;;;37.64;18.54
61961;BME280;47923;42.506;24.192;2023-08-20T11:06:46;95652.53;;;37.82;18.11
61961;BME280;47923;42.506;24.192;2023-08-20T11:09:12;95662.41;;;37.51;18.36
61961;BME280;47923;42.506;24.192;2023-08-20T11:11:39;95665.84;;;36.70;18.98
61961;BME280;47923;42.506;24.192;2023-08-20T11:14:11;95523.06;;;36.28;19.17
61961;BME280;47923;42.506;24.192;2023-08-20T11:16:39;95504.72;;;36.21;19.11
61961;BME280;47923;42.506;24.192;2023-08-20T11:19:05;95636.78;;;36.32;18.97
61961;BME280;47923;42.506;24.192;2023-08-20T11:21:34;95609.56;;;35.39;20.49
61961;BME280;47923;42.506;24.192;2023-08-20T11:24:01;95564.94;;;35.30;20.67
61961;BME280;47923;42.506;24.192;2023-08-20T11:26:26;95598.66;;;35.71;20.26
61961;BME280;47923;42.506;24.192;2023-08-20T11:28:52;95639.97;;;35.82;20.25
61961;BME280;47923;42.506;24.192;2023-08-20T11:31:17;95659.09;;;35.36;21.15
61961;BME280;47923;42.506;24.192;2023-08-20T11:33:42;95641.50;;;35.36;20.77
61961;BME280;47923;42.506;24.192;2023-08-20T11:36:08;95634.94;;;35.16;20.96
61961;BME280;47923;42.506;24.192;2023-08-20T11:38:33;95561.19;;;34.52;20.76
61961;BME280;47923;42.506;24.192;2023-08-20T11:40:59;95594.41;;;35.06;21.35
61961;BME280;47923;42.506;24.192;2023-08-20T11:43:30;95447.09;;;33.86;20.90
61961;BME280;47923;42.506;24.192;2023-08-20T11:45:56;95619.91;;;35.14;21.01
61961;BME280;47923;42.506;24.192;2023-08-20T11:48:22;95607.59;;;35.28;21.12
61961;BME280;47923;42.506;24.192;2023-08-20T11:50:49;95616.56;;;35.15;21.08
61961;BME280;47923;42.506;24.192;2023-08-20T11:53:15;95617.00;;;34.56;21.49
61961;BME280;47923;42.506;24.192;2023-08-20T11:55:40;95626.94;;;34.29;21.19
61961;BME280;47923;42.506;24.192;2023-08-20T11:58:12;95614.47;;;34.30;21.81
61961;BME280;47923;42.506;24.192;2023-08-20T12:00:38;95614.47;;;34.30;21.61
61961;BME280;47923;42.506;24.192;2023-08-20T12:03:03;95618.03;;;34.08;21.86
61961;BME280;47923;42.506;24.192;2023-08-20T12:05:30;95626.97;;;34.23;22.02
61961;BME280;47923;42.506;24.192;2023-08-20T12:08:01;95612.97;;;34.06;22.33
61961;BME280;47923;42.506;24.192;2023-08-20T12:10:29;95606.09;;;34.02;22.17
61961;BME280;47923;42.506;24.192;2023-08-20T12:12:56;95554.34;;;33.47;22.30
61961;BME280;47923;42.506;24.192;2023-08-20T12:15:22;95551.44;;;33.08;22.95
61961;BME280;47923;42.506;24.192;2023-08-20T12:17:58;95605.50;;;33.53;23.10
61961;BME280;47923;42.506;24.192;2023-08-20T12:20:26;95470.72;;;32.18;23.26
61961;BME280;47923;42.506;24.192;2023-08-20T12:22:51;95608.50;;;33.33;22.96
61961;BME280;47923;42.506;24.192;2023-08-20T12:25:17;95596.28;;;33.30;23.55
61961;BME280;47923;42.506;24.192;2023-08-20T12:27:42;95592.81;;;33.58;22.78
61961;BME280;47923;42.506;24.192;2023-08-20T12:30:08;95118.84;;;30.57;23.30
61961;BME280;47923;42.506;24.192;2023-08-20T12:32:34;95588.69;;;33.42;22.56
61961;BME280;47923;42.506;24.192;2023-08-20T12:34:59;95488.72;;;32.66;22.62
61961;BME280;47923;42.506;24.192;2023-08-20T12:37:24;95469.97;;;32.83;23.16
61961;BME280;47923;42.506;24.192;2023-08-20T12:39:50;95579.47;;;33.30;23.52
61961;BME280;47923;42.506;24.192;2023-08-20T12:42:15;95404.22;;;32.34;22.90
61961;BME280;47923;42.506;24.192;2023-08-20T12:44:41;95399.44;;;32.45;23.14
61961;BME280;47923;42.506;24.192;2023-08-20T12:47:06;95576.75;;;33.58;22.31
61961;BME280;47923;42.506;24.192;2023-08-20T12:49:32;95574.72;;;33.53;23.05
61961;BME280;47923;42.506;24.192;2023-08-20T12:51:57;95583.38;;;33.66;22.93